createdAt,value
2023-04-23T00:00:13.380Z,100140.47
2023-04-23T00:02:45.299Z,100149.09
2023-04-23T00:05:14.737Z,100140.19
2023-04-23T00:07:43.880Z,100152.13
2023-04-23T00:10:14.016Z,100145.19
2023-04-23T00:12:43.161Z,100144.19
2023-04-23T00:15:12.506Z,100135.09
2023-04-23T00:17:40.237Z,100131.56
2023-04-23T00:20:10.739Z,100129.22
2023-04-23T00:22:38.211Z,100123.50
2023-04-23T00:25:06.807Z,100131.16
2023-04-23T00:27:35.805Z,100130.03
2023-04-23T00:30:04.139Z,100130.28
2023-04-23T00:32:32.137Z,100132.59
2023-04-23T00:34:59.820Z,100131.28
2023-04-23T00:37:27.731Z,100117.63
2023-04-23T00:39:55.478Z,100132.09
2023-04-23T00:42:23.450Z,100119.75
2023-04-23T00:44:53.218Z,100125.56
2023-04-23T00:47:22.830Z,100119.25
2023-04-23T00:49:53.160Z,100122.06
2023-04-23T00:52:21.498Z,100112.78
2023-04-23T00:54:49.160Z,100107.50
2023-04-23T00:57:17.353Z,100103.94
2023-04-23T00:59:45.182Z,100109.25
2023-04-23T01:02:15.350Z,100105.38
2023-04-23T01:04:44.881Z,100098.56
2023-04-23T01:07:13.707Z,100101.34
2023-04-23T01:09:42.493Z,100105.59
2023-04-23T01:12:11.358Z,100102.84
2023-04-23T01:14:40.078Z,100098.31
2023-04-23T01:17:09.814Z,100105.25
2023-04-23T01:19:39.433Z,100097.50
2023-04-23T01:22:11.705Z,100096.53
2023-04-23T01:24:41.514Z,100108.69
2023-04-23T01:27:09.419Z,100099.59
2023-04-23T01:29:37.524Z,100109.84
2023-04-23T01:32:06.093Z,100106.25
2023-04-23T01:34:34.714Z,100104.81
2023-04-23T01:37:04.509Z,100100.75
2023-04-23T01:39:33.940Z,100104.34
2023-04-23T01:42:03.034Z,100102.13
2023-04-23T01:44:30.832Z,100104.69
2023-04-23T01:46:59.021Z,100099.47
2023-04-23T01:49:26.822Z,100095.06
2023-04-23T01:51:54.793Z,100086.28
2023-04-23T01:54:22.429Z,100089.88
2023-04-23T01:56:54.889Z,100089.38
2023-04-23T01:59:23.499Z,100091.66
2023-04-23T02:01:51.483Z,100090.53
2023-04-23T02:04:19.519Z,100079.34
2023-04-23T02:06:50.081Z,100087.47
2023-04-23T02:09:17.909Z,100085.69
2023-04-23T02:11:45.985Z,100079.41
2023-04-23T02:14:15.368Z,100076.56
2023-04-23T02:16:43.696Z,100075.91
2023-04-23T02:19:12.628Z,100078.16
2023-04-23T02:21:41.161Z,100080.94
2023-04-23T02:24:09.174Z,100071.84
2023-04-23T02:26:36.847Z,100072.00
2023-04-23T02:29:05.143Z,100078.53
2023-04-23T02:31:34.513Z,100069.78
2023-04-23T02:34:02.142Z,100062.00
2023-04-23T02:36:31.430Z,100059.22
2023-04-23T02:38:59.129Z,100062.00
2023-04-23T02:41:26.792Z,100051.59
2023-04-23T02:43:54.821Z,100063.47
2023-04-23T02:46:22.481Z,100052.69
2023-04-23T02:48:52.591Z,100057.84
2023-04-23T02:51:20.222Z,100055.81
2023-04-23T02:53:48.200Z,100048.25
2023-04-23T02:56:15.970Z,100040.09
2023-04-23T02:58:43.985Z,100038.69
2023-04-23T03:01:11.727Z,100032.66
2023-04-23T03:03:39.562Z,100033.47
2023-04-23T03:06:09.981Z,100010.88
2023-04-23T03:08:37.581Z,100001.25
2023-04-23T03:11:05.291Z,100040.00
2023-04-23T03:13:32.953Z,100041.78
2023-04-23T03:16:01.052Z,100037.06
2023-04-23T03:18:28.861Z,100051.16
2023-04-23T03:20:57.026Z,100052.53
2023-04-23T03:23:26.119Z,100047.88
2023-04-23T03:25:54.162Z,100052.22
2023-04-23T03:28:21.861Z,100040.09
2023-04-23T03:30:49.816Z,100043.00
2023-04-23T03:33:17.586Z,100039.03
2023-04-23T03:35:45.538Z,100029.50
2023-04-23T03:38:13.121Z,100026.25
2023-04-23T03:40:42.518Z,100021.53
2023-04-23T03:43:10.214Z,100005.78
2023-04-23T03:45:38.321Z,100004.59
2023-04-23T03:48:06.045Z,100004.78
2023-04-23T03:50:39.138Z,100008.25
2023-04-23T03:53:09.852Z,100004.53
2023-04-23T03:55:37.552Z,100008.41
2023-04-23T03:58:06.959Z,100007.09
2023-04-23T04:00:34.668Z,100012.09
2023-04-23T04:03:02.852Z,100006.09
2023-04-23T04:05:30.885Z,100001.06
2023-04-23T04:07:58.635Z,99996.41
2023-04-23T04:10:26.638Z,99989.25
2023-04-23T04:12:55.585Z,99995.91
2023-04-23T04:15:24.615Z,100000.09
2023-04-23T04:17:52.662Z,99999.44
2023-04-23T04:20:20.533Z,100006.31
2023-04-23T04:22:48.610Z,100014.34
2023-04-23T04:25:16.322Z,100023.50
2023-04-23T04:27:44.350Z,100031.94
2023-04-23T04:30:13.113Z,100031.50
2023-04-23T04:32:43.114Z,100043.47
2023-04-23T04:35:13.056Z,100048.06
2023-04-23T04:37:40.669Z,100021.88
2023-04-23T04:40:11.577Z,100032.38
2023-04-23T04:42:39.463Z,100033.50
2023-04-23T04:45:08.664Z,100035.63
2023-04-23T04:47:36.632Z,100039.56
2023-04-23T04:50:06.783Z,100034.84
2023-04-23T04:52:34.444Z,100051.25
2023-04-23T04:55:02.411Z,100051.16
2023-04-23T04:57:30.135Z,100039.19
2023-04-23T04:59:58.300Z,100036.13
2023-04-23T05:02:26.580Z,100039.50
2023-04-23T05:04:54.359Z,100035.81
2023-04-23T05:07:23.704Z,100045.69
2023-04-23T05:09:51.299Z,100052.44
2023-04-23T05:12:19.503Z,100053.44
2023-04-23T05:14:47.111Z,100057.28
2023-04-23T05:17:15.232Z,100049.41
2023-04-23T05:19:42.824Z,100055.34
2023-04-23T05:22:10.453Z,100047.59
2023-04-23T05:24:39.969Z,100057.03
2023-04-23T05:27:07.765Z,100050.69
2023-04-23T05:29:36.602Z,100051.66
2023-04-23T05:32:04.830Z,100054.91
2023-04-23T05:34:32.519Z,100051.59
2023-04-23T05:37:00.835Z,100050.59
2023-04-23T05:39:28.908Z,100054.66
2023-04-23T05:41:58.044Z,100056.09
2023-04-23T05:44:26.124Z,100054.56
2023-04-23T05:46:53.960Z,100049.06
2023-04-23T05:49:21.599Z,100057.38
2023-04-23T05:51:49.763Z,100057.09
2023-04-23T05:54:17.354Z,100055.88
2023-04-23T05:56:45.352Z,100052.34
2023-04-23T05:59:14.407Z,100060.31
2023-04-23T06:01:42.895Z,100069.13
2023-04-23T06:04:10.681Z,100059.13
2023-04-23T06:06:39.506Z,100060.16
2023-04-23T06:09:07.758Z,100050.44
2023-04-23T06:11:36.367Z,100059.00
2023-04-23T06:14:04.330Z,100055.81
2023-04-23T06:16:33.675Z,100062.63
2023-04-23T06:19:01.281Z,100061.66
2023-04-23T06:21:29.143Z,100053.69
2023-04-23T06:23:57.371Z,100050.19
2023-04-23T06:26:25.023Z,100051.13
2023-04-23T06:28:53.216Z,100052.72
2023-04-23T06:31:21.006Z,100054.22
2023-04-23T06:33:50.043Z,100052.09
2023-04-23T06:36:18.017Z,100055.53
2023-04-23T06:38:46.042Z,100060.38
2023-04-23T06:41:13.793Z,100053.41
2023-04-23T06:43:41.565Z,100056.31
2023-04-23T06:46:09.769Z,100046.09
2023-04-23T06:48:37.633Z,100055.34
2023-04-23T06:51:07.359Z,100050.66
2023-04-23T06:53:35.489Z,100050.19
2023-04-23T06:56:03.216Z,100056.53
2023-04-23T06:58:32.227Z,100057.19
2023-04-23T07:01:01.495Z,100049.72
2023-04-23T07:03:29.406Z,100056.56
2023-04-23T07:05:58.040Z,100048.75
2023-04-23T07:08:27.049Z,100054.94
2023-04-23T07:10:54.720Z,100055.56
2023-04-23T07:13:22.764Z,100068.41
2023-04-23T07:15:50.584Z,100060.28
2023-04-23T07:18:18.588Z,100060.59
2023-04-23T07:20:46.279Z,100063.06
2023-04-23T07:23:14.367Z,100062.75
2023-04-23T07:25:43.429Z,100066.97
2023-04-23T07:28:11.434Z,100073.94
2023-04-23T07:30:39.174Z,100063.22
2023-04-23T07:33:06.998Z,100068.25
2023-04-23T07:35:34.722Z,100077.34
2023-04-23T07:38:02.700Z,100080.09
2023-04-23T07:40:30.432Z,100084.31
2023-04-23T07:42:59.687Z,100077.81
2023-04-23T07:45:27.684Z,100080.72
2023-04-23T07:47:55.320Z,100082.00
2023-04-23T07:50:24.199Z,100077.63
2023-04-23T07:52:52.051Z,100080.38
2023-04-23T07:55:20.753Z,100078.72
2023-04-23T07:57:48.866Z,100079.81
2023-04-23T08:00:18.458Z,100078.50
2023-04-23T08:02:46.283Z,100084.84
2023-04-23T08:05:14.588Z,100077.03
2023-04-23T08:07:42.313Z,100079.66
2023-04-23T08:10:10.703Z,100089.34
2023-04-23T08:12:38.909Z,100086.09
2023-04-23T08:15:07.918Z,100077.00
2023-04-23T08:17:37.102Z,100092.41
2023-04-23T08:20:06.967Z,100089.16
2023-04-23T08:22:34.633Z,100086.13
2023-04-23T08:25:02.308Z,100085.50
2023-04-23T08:27:30.922Z,100079.66
2023-04-23T08:29:58.553Z,100084.28
2023-04-23T08:32:27.513Z,100089.13
2023-04-23T08:34:56.572Z,100076.53
2023-04-23T08:37:30.959Z,100078.59
2023-04-23T08:39:59.333Z,100083.81
2023-04-23T08:42:38.227Z,100088.56
2023-04-23T08:45:07.105Z,100087.63
2023-04-23T08:47:35.639Z,100082.59
2023-04-23T08:50:06.356Z,100077.56
2023-04-23T08:52:36.074Z,100079.69
2023-04-23T08:55:10.516Z,100078.38
2023-04-23T08:57:39.811Z,100085.53
2023-04-23T09:00:10.066Z,100076.78
2023-04-23T09:02:38.527Z,100081.03
2023-04-23T09:05:08.570Z,100091.41
2023-04-23T09:07:37.029Z,100096.31
2023-04-23T09:10:05.985Z,100102.00
2023-04-23T09:12:33.910Z,100100.06
2023-04-23T09:15:02.744Z,100090.81
2023-04-23T09:17:30.881Z,100094.53
2023-04-23T09:20:00.205Z,100102.47
2023-04-23T09:22:47.653Z,100102.03
2023-04-23T09:25:18.717Z,100100.72
2023-04-23T09:27:47.194Z,100097.47
2023-04-23T09:30:15.615Z,100096.00
2023-04-23T09:32:45.948Z,100101.53
2023-04-23T09:35:15.731Z,100104.78
2023-04-23T09:37:48.304Z,100105.41
2023-04-23T09:40:17.986Z,100100.38
2023-04-23T09:42:49.468Z,100100.03
2023-04-23T09:45:17.796Z,100099.25
2023-04-23T09:47:51.371Z,100103.47
2023-04-23T09:50:19.697Z,100093.56
2023-04-23T09:52:56.096Z,100100.50
2023-04-23T09:55:29.796Z,100103.25
2023-04-23T09:57:57.556Z,100102.75
2023-04-23T10:00:29.470Z,100112.59
2023-04-23T10:02:57.278Z,100120.88
2023-04-23T10:05:29.441Z,100122.22
2023-04-23T10:08:07.789Z,100118.03
2023-04-23T10:10:43.083Z,100127.88
2023-04-23T10:13:21.295Z,100138.22
2023-04-23T10:15:49.331Z,100146.53
2023-04-23T10:18:17.648Z,100148.50
2023-04-23T10:20:45.786Z,100145.56
2023-04-23T10:23:15.160Z,100148.94
2023-04-23T10:25:44.691Z,100153.03
2023-04-23T10:28:16.047Z,100150.25
2023-04-23T10:30:45.726Z,100160.66
2023-04-23T10:33:28.546Z,100159.09
2023-04-23T10:35:58.430Z,100162.63
2023-04-23T10:38:28.881Z,100171.91
2023-04-23T10:41:00.117Z,100162.78
2023-04-23T10:43:27.833Z,100165.69
2023-04-23T10:45:55.543Z,100166.38
2023-04-23T10:48:23.731Z,100154.91
2023-04-23T10:51:09.594Z,100142.00
2023-04-23T10:53:48.280Z,100137.09
2023-04-23T10:56:16.539Z,100152.00
2023-04-23T10:58:53.477Z,100161.44
2023-04-23T11:01:22.054Z,100166.78
2023-04-23T11:03:49.923Z,100167.47
2023-04-23T11:06:22.149Z,100163.72
2023-04-23T11:08:55.273Z,100168.78
2023-04-23T11:11:40.827Z,100162.66
2023-04-23T11:14:14.791Z,100168.84
2023-04-23T11:16:42.724Z,100169.19
2023-04-23T11:19:12.459Z,100164.19
2023-04-23T11:22:02.706Z,100168.13
2023-04-23T11:24:33.906Z,100177.25
2023-04-23T11:27:03.057Z,100183.59
2023-04-23T11:29:30.702Z,100180.44
2023-04-23T11:32:02.937Z,100184.31
2023-04-23T11:34:32.095Z,100178.31
2023-04-23T11:37:01.259Z,100180.94
2023-04-23T11:39:28.929Z,100191.16
2023-04-23T11:41:59.611Z,100181.75
2023-04-23T11:44:28.090Z,100181.25
2023-04-23T11:46:57.862Z,100174.13
2023-04-23T11:49:26.798Z,100184.88
2023-04-23T11:51:54.526Z,100185.34
2023-04-23T11:54:28.516Z,100189.66
2023-04-23T11:56:59.739Z,100200.16
2023-04-23T11:59:27.835Z,100194.78
2023-04-23T12:01:56.834Z,100182.94
2023-04-23T12:04:26.284Z,100178.78
2023-04-23T12:06:55.445Z,100178.94
2023-04-23T12:09:25.282Z,100200.06
2023-04-23T12:11:53.455Z,100204.47
2023-04-23T12:14:28.853Z,100199.41
2023-04-23T12:16:57.649Z,100198.75
2023-04-23T12:19:29.558Z,100188.34
2023-04-23T12:21:58.539Z,100210.75
2023-04-23T12:24:28.549Z,100205.38
2023-04-23T12:26:58.395Z,100210.28
2023-04-23T12:29:28.090Z,100221.50
2023-04-23T12:32:00.196Z,100227.53
2023-04-23T12:34:27.846Z,100221.34
2023-04-23T12:36:57.794Z,100223.63
2023-04-23T12:39:29.240Z,100219.56
2023-04-23T12:42:00.162Z,100226.06
2023-04-23T12:44:30.482Z,100216.19
2023-04-23T12:46:59.946Z,100223.34
2023-04-23T12:49:28.380Z,100233.75
2023-04-23T12:52:01.131Z,100225.59
2023-04-23T12:54:32.276Z,100225.75
2023-04-23T12:57:02.296Z,100218.09
2023-04-23T12:59:32.817Z,100206.53
2023-04-23T13:02:02.081Z,100215.25
2023-04-23T13:04:30.758Z,100216.28
2023-04-23T13:06:58.790Z,100216.53
2023-04-23T13:09:27.967Z,100226.03
2023-04-23T13:11:56.343Z,100215.50
2023-04-23T13:14:25.134Z,100213.41
2023-04-23T13:16:54.193Z,100201.28
2023-04-23T13:19:21.864Z,100205.53
2023-04-23T13:21:49.893Z,100201.44
2023-04-23T13:24:17.611Z,100203.06
2023-04-23T13:26:45.673Z,100211.94
2023-04-23T13:29:13.402Z,100227.84
2023-04-23T13:31:41.506Z,100219.13
2023-04-23T13:34:10.579Z,100206.63
2023-04-23T13:36:41.581Z,100200.47
2023-04-23T13:39:10.899Z,100212.59
2023-04-23T13:41:38.853Z,100216.34
2023-04-23T13:44:06.533Z,100210.44
2023-04-23T13:46:34.864Z,100203.50
2023-04-23T13:49:02.630Z,100208.91
2023-04-23T13:51:35.763Z,100203.94
2023-04-23T13:54:04.344Z,100200.41
2023-04-23T13:56:33.075Z,100178.78
2023-04-23T13:59:17.665Z,100183.28
2023-04-23T14:01:50.007Z,100180.00
2023-04-23T14:04:18.388Z,100185.91
2023-04-23T14:06:47.527Z,100193.94
2023-04-23T14:09:15.385Z,100193.31
2023-04-23T14:11:43.058Z,100176.16
2023-04-23T14:14:11.387Z,100179.66
2023-04-23T14:16:39.109Z,100167.59
2023-04-23T14:19:07.673Z,100174.31
2023-04-23T14:21:36.126Z,100167.03
2023-04-23T14:24:12.003Z,100170.28
2023-04-23T14:26:48.838Z,100166.44
2023-04-23T14:29:25.796Z,100174.97
2023-04-23T14:31:53.573Z,100156.63
2023-04-23T14:34:21.293Z,100154.00
2023-04-23T14:36:49.882Z,100160.44
2023-04-23T14:39:18.933Z,100147.47
2023-04-23T14:41:46.643Z,100151.63
2023-04-23T14:44:14.722Z,100142.53
2023-04-23T14:46:42.404Z,100141.06
2023-04-23T14:49:10.002Z,100142.06
2023-04-23T14:51:38.274Z,100131.06
2023-04-23T14:54:06.347Z,100133.38
2023-04-23T14:56:35.459Z,100140.13
2023-04-23T14:59:03.727Z,100135.28
2023-04-23T15:01:31.682Z,100142.22
2023-04-23T15:03:59.587Z,100146.59
2023-04-23T15:06:27.612Z,100132.16
2023-04-23T15:08:55.277Z,100125.13
2023-04-23T15:11:23.041Z,100116.81
2023-04-23T15:13:57.823Z,100123.31
2023-04-23T15:16:46.755Z,100122.38
2023-04-23T15:19:18.589Z,100129.66
2023-04-23T15:21:46.950Z,100145.28
2023-04-23T15:24:15.265Z,100128.06
2023-04-23T15:26:43.861Z,100118.91
2023-04-23T15:29:13.484Z,100124.56
2023-04-23T15:31:42.361Z,100114.03
2023-04-23T15:34:11.942Z,100112.41
2023-04-23T15:36:39.617Z,100108.72
2023-04-23T15:39:08.570Z,100106.16
2023-04-23T15:41:39.384Z,100096.47
2023-04-23T15:44:11.101Z,100099.34
2023-04-23T15:46:40.495Z,100116.34
2023-04-23T15:49:08.306Z,100110.09
2023-04-23T15:51:36.840Z,100102.69
2023-04-23T15:54:07.925Z,100108.56
2023-04-23T15:56:35.879Z,100107.41
2023-04-23T15:59:04.676Z,100106.00
2023-04-23T16:01:32.409Z,100098.25
2023-04-23T16:04:10.135Z,100099.84
2023-04-23T16:06:38.407Z,100091.91
2023-04-23T16:09:08.757Z,100093.88
2023-04-23T16:11:37.019Z,100092.50
2023-04-23T16:14:05.190Z,100082.66
2023-04-23T16:16:34.145Z,100082.38
2023-04-23T16:19:03.591Z,100071.88
2023-04-23T16:21:32.322Z,100068.16
2023-04-23T16:24:00.378Z,100070.09
2023-04-23T16:26:29.369Z,100065.69
2023-04-23T16:31:28.960Z,100065.44
2023-04-23T16:33:56.717Z,100066.47
2023-04-23T16:36:25.771Z,100052.81
2023-04-23T16:38:53.960Z,100063.53
2023-04-23T16:41:21.983Z,100061.53
2023-04-23T16:43:49.670Z,100056.16
2023-04-23T16:46:17.981Z,100045.41
2023-04-23T16:48:46.103Z,100048.25
2023-04-23T16:51:14.309Z,100054.84
2023-04-23T16:53:43.343Z,100049.03
2023-04-23T16:56:11.009Z,100050.66
2023-04-23T16:58:39.271Z,100046.16
2023-04-23T17:01:06.918Z,100038.63
2023-04-23T17:03:36.437Z,100044.25
2023-04-23T17:06:12.733Z,100033.53
2023-04-23T17:08:40.796Z,100033.06
2023-04-23T17:11:09.853Z,100028.66
2023-04-23T17:13:37.902Z,100029.44
2023-04-23T17:16:05.704Z,100020.28
2023-04-23T17:18:33.440Z,100014.75
2023-04-23T17:21:01.624Z,100002.28
2023-04-23T17:23:29.458Z,100006.13
2023-04-23T17:25:57.581Z,100005.25
2023-04-23T17:28:26.621Z,99993.44
2023-04-23T17:30:56.051Z,99988.97
2023-04-23T17:33:24.393Z,99994.91
2023-04-23T17:35:54.265Z,99990.53
2023-04-23T17:38:22.126Z,99989.06
2023-04-23T17:40:51.161Z,99985.47
2023-04-23T17:43:19.223Z,99983.03
2023-04-23T17:45:48.652Z,99977.22
2023-04-23T17:48:16.905Z,99970.75
2023-04-23T17:50:45.182Z,99975.97
2023-04-23T17:53:13.046Z,99983.94
2023-04-23T17:55:41.854Z,99981.84
2023-04-23T17:58:09.635Z,99979.75
2023-04-23T18:00:38.107Z,99974.59
2023-04-23T18:03:09.063Z,99975.63
2023-04-23T18:05:37.199Z,99981.97
2023-04-23T18:08:06.812Z,99979.88
2023-04-23T18:10:35.292Z,99977.94
2023-04-23T18:13:03.919Z,99978.25
2023-04-23T18:15:34.353Z,99977.31
2023-04-23T18:18:02.048Z,99984.97
2023-04-23T18:20:33.074Z,99979.16
2023-04-23T18:23:01.215Z,99983.22
2023-04-23T18:25:28.921Z,99984.06
2023-04-23T18:27:57.327Z,99991.38
2023-04-23T18:30:25.911Z,99982.44
2023-04-23T18:33:03.615Z,99987.34
2023-04-23T18:35:32.674Z,99984.13
2023-04-23T18:38:06.989Z,99981.00
2023-04-23T18:40:34.819Z,99986.41
2023-04-23T18:43:03.830Z,99988.97
2023-04-23T18:45:31.490Z,99988.19
2023-04-23T18:48:06.381Z,99992.22
2023-04-23T18:50:43.867Z,99995.34
2023-04-23T18:53:11.803Z,99997.91
2023-04-23T18:55:39.493Z,99994.97
2023-04-23T18:58:07.109Z,99988.84
2023-04-23T19:00:34.840Z,99991.41
2023-04-23T19:03:06.648Z,99984.75
2023-04-23T19:05:41.933Z,99983.78
2023-04-23T19:08:09.596Z,99977.44
2023-04-23T19:10:39.107Z,99980.00
2023-04-23T19:13:07.381Z,99977.56
2023-04-23T19:15:36.042Z,99976.25
2023-04-23T19:18:07.073Z,99983.38
2023-04-23T19:20:34.834Z,99980.94
2023-04-23T19:23:04.892Z,99972.97
2023-04-23T19:25:33.135Z,99969.38
2023-04-23T19:28:00.757Z,99976.63
2023-04-23T19:30:28.391Z,99973.88
2023-04-23T19:32:56.483Z,99975.63
2023-04-23T19:35:24.200Z,99971.38
2023-04-23T19:37:52.184Z,99965.38
2023-04-23T19:40:21.278Z,99966.66
2023-04-23T19:42:49.424Z,99960.97
2023-04-23T19:45:18.315Z,99963.84
2023-04-23T19:47:46.557Z,99964.94
2023-04-23T19:50:14.657Z,99954.06
2023-04-23T19:52:42.434Z,99950.28
2023-04-23T19:55:10.964Z,99955.09
2023-04-23T19:57:40.049Z,99948.91
2023-04-23T20:00:12.752Z,99949.66
2023-04-23T20:02:40.539Z,99954.69
2023-04-23T20:05:10.312Z,99949.91
2023-04-23T20:07:38.454Z,99951.03
2023-04-23T20:10:07.481Z,99938.41
2023-04-23T20:12:36.161Z,99940.34
2023-04-23T20:15:05.856Z,99939.47
2023-04-23T20:17:34.867Z,99939.31
2023-04-23T20:20:02.905Z,99928.28
2023-04-23T20:22:32.109Z,99937.84
2023-04-23T20:25:01.824Z,99937.34
2023-04-23T20:27:29.863Z,99938.81
2023-04-23T20:29:58.143Z,99932.16
2023-04-23T20:32:27.272Z,99935.66
2023-04-23T20:34:55.373Z,99935.16
2023-04-23T20:37:23.387Z,99931.59
2023-04-23T20:39:52.736Z,99925.16
2023-04-23T20:42:20.462Z,99926.72
2023-04-23T20:44:48.943Z,99924.47
2023-04-23T20:47:16.696Z,99918.78
2023-04-23T20:49:45.680Z,99914.41
2023-04-23T20:52:15.002Z,99910.81
2023-04-23T20:54:43.013Z,99907.06
2023-04-23T20:57:12.039Z,99907.72
2023-04-23T20:59:39.909Z,99914.13
2023-04-23T21:02:08.583Z,99895.22
2023-04-23T21:04:36.705Z,99894.72
2023-04-23T21:07:05.831Z,99891.47
2023-04-23T21:09:33.535Z,99887.69
2023-04-23T21:12:02.574Z,99884.34
2023-04-23T21:14:31.545Z,99883.22
2023-04-23T21:16:59.250Z,99879.97
2023-04-23T21:19:27.404Z,99875.25
2023-04-23T21:21:55.080Z,99873.41
2023-04-23T21:24:24.165Z,99871.78
2023-04-23T21:26:52.390Z,99862.72
2023-04-23T21:29:20.443Z,99860.78
2023-04-23T21:31:49.180Z,99856.91
2023-04-23T21:34:17.467Z,99852.97
2023-04-23T21:36:45.667Z,99842.63
2023-04-23T21:39:14.018Z,99842.94
2023-04-23T21:41:43.680Z,99843.09
2023-04-23T21:44:11.411Z,99840.41
2023-04-23T21:46:39.119Z,99836.53
2023-04-23T21:49:07.403Z,99831.75
2023-04-23T21:51:36.729Z,99832.59
2023-04-23T21:54:05.494Z,99834.84
2023-04-23T21:56:33.900Z,99828.72
2023-04-23T21:59:03.112Z,99820.75
2023-04-23T22:01:33.116Z,99817.50
2023-04-23T22:04:03.275Z,99822.78
2023-04-23T22:06:31.098Z,99827.41
2023-04-23T22:08:59.244Z,99820.22
2023-04-23T22:11:26.975Z,99818.94
2023-04-23T22:13:54.631Z,99826.78
2023-04-23T22:16:28.484Z,99829.84
2023-04-23T22:18:57.110Z,99834.31
2023-04-23T22:21:26.242Z,99833.72
2023-04-23T22:23:53.892Z,99837.88
2023-04-23T22:26:22.122Z,99840.63
2023-04-23T22:28:50.495Z,99842.06
2023-04-23T22:31:18.387Z,99843.38
2023-04-23T22:33:47.525Z,99837.25
2023-04-23T22:36:15.674Z,99840.00
2023-04-23T22:38:43.488Z,99836.47
2023-04-23T22:41:11.292Z,99822.59
2023-04-23T22:43:39.443Z,99825.53
2023-04-23T22:46:07.137Z,99828.81
2023-04-23T22:48:37.877Z,99829.31
2023-04-23T22:51:06.979Z,99821.22
2023-04-23T22:53:34.617Z,99815.84
2023-04-23T22:56:02.672Z,99829.31
2023-04-23T22:58:30.425Z,99815.06
2023-04-23T23:00:58.594Z,99809.44
2023-04-23T23:03:26.738Z,99801.69
2023-04-23T23:05:54.498Z,99787.78
2023-04-23T23:08:24.002Z,99785.25
2023-04-23T23:10:51.723Z,99789.78
2023-04-23T23:13:19.372Z,99788.88
2023-04-23T23:15:47.405Z,99795.22
2023-04-23T23:18:15.234Z,99790.22
2023-04-23T23:20:44.574Z,99785.84
2023-04-23T23:23:12.821Z,99769.81
2023-04-23T23:25:41.784Z,99769.19
2023-04-23T23:28:09.837Z,99764.50
2023-04-23T23:30:37.562Z,99766.25
2023-04-23T23:33:06.381Z,99756.56
2023-04-23T23:35:34.429Z,99754.47
2023-04-23T23:38:02.133Z,99751.56
2023-04-23T23:40:30.264Z,99746.69
2023-04-23T23:42:59.941Z,99744.25
2023-04-23T23:45:27.815Z,99744.09
2023-04-23T23:47:56.427Z,99736.34
2023-04-23T23:50:24.143Z,99731.50
2023-04-23T23:52:51.816Z,99728.38
2023-04-23T23:55:20.048Z,99734.00
2023-04-23T23:57:47.686Z,99724.91
